OEJD/n/a METAR and TAF weather

Enter ICAO airport designator
Station Type Date Time Source
OEJD METAR 2011/02/08 04:00 UTC NOAA

OEJD 080400Z RRA


Station Type Date Time Source
OEJD Decoded METAR 2011/02/08 04:00 UTC NOAA

Jeddah , Saudi Arabia (OEJD) 21-30N 039-12E
Feb 07, 2011 - 11:00 PM EST / 2011.02.08 0400 UTC
ob: OEJD 080400Z RRA
cycle: 4

Station Type Date Time Source
OEJD TAF 2018/02/16 23:00 UTC NOAA

FTSD40 OEJD 162300 RRA TAF OEAH 162300Z 1700/1806 VRB03KT CAVOK
BECMG 1704/1706 18015KT
TEMPO 1706/1713 4000 BLDU


Example: see airport list